createdAt,value
2017-09-15T00:00:14.733Z,7.43
2017-09-15T00:02:50.085Z,7.60
2017-09-15T00:05:24.885Z,7.00
2017-09-15T00:08:00.018Z,10.73
2017-09-15T00:10:34.792Z,11.17
2017-09-15T00:13:09.544Z,6.87
2017-09-15T00:15:44.306Z,7.37
2017-09-15T00:18:19.090Z,7.63
2017-09-15T00:20:53.988Z,9.03
2017-09-15T00:23:29.604Z,10.20
2017-09-15T00:26:04.560Z,8.40
2017-09-15T00:28:39.336Z,5.93
2017-09-15T00:31:14.092Z,8.57
2017-09-15T00:33:48.891Z,5.20
2017-09-15T00:36:23.477Z,7.53
2017-09-15T00:38:58.071Z,5.63
2017-09-15T00:41:32.752Z,5.30
2017-09-15T00:44:07.365Z,6.80
2017-09-15T00:46:42.064Z,10.57
2017-09-15T00:49:16.656Z,7.47
2017-09-15T00:51:50.921Z,4.60
2017-09-15T00:54:25.712Z,8.40
2017-09-15T00:57:00.401Z,10.53
2017-09-15T00:59:34.896Z,2.90
2017-09-15T01:02:09.380Z,7.17
2017-09-15T01:04:44.128Z,6.00
2017-09-15T01:07:18.689Z,4.20
2017-09-15T01:09:52.965Z,2.60
2017-09-15T01:12:27.426Z,8.03
2017-09-15T01:15:03.420Z,4.43
2017-09-15T01:17:37.692Z,10.87
2017-09-15T01:20:12.760Z,14.60
2017-09-15T01:22:48.009Z,6.43
2017-09-15T01:25:22.728Z,5.23
2017-09-15T01:27:57.318Z,5.30
2017-09-15T01:30:32.068Z,6.57
2017-09-15T01:33:06.828Z,12.20
2017-09-15T01:35:41.568Z,4.17
2017-09-15T01:38:16.409Z,4.67
2017-09-15T01:40:51.232Z,6.93
2017-09-15T01:43:25.853Z,8.10
2017-09-15T01:46:00.665Z,6.63
2017-09-15T01:48:35.393Z,6.83
2017-09-15T01:51:10.089Z,5.63
2017-09-15T01:53:44.918Z,8.33
2017-09-15T01:56:19.845Z,9.93
2017-09-15T01:58:54.605Z,3.87
2017-09-15T02:01:29.199Z,6.37
2017-09-15T02:04:03.560Z,6.30
2017-09-15T02:06:38.589Z,11.90
2017-09-15T02:09:13.336Z,7.73
2017-09-15T02:11:48.189Z,7.60
2017-09-15T02:14:22.915Z,10.77
2017-09-15T02:16:57.817Z,8.37
2017-09-15T02:19:32.667Z,12.63
2017-09-15T02:22:07.356Z,6.20
2017-09-15T02:24:42.116Z,10.73
2017-09-15T02:27:16.904Z,7.33
2017-09-15T02:29:51.833Z,10.77
2017-09-15T02:32:26.465Z,12.47
2017-09-15T02:35:01.175Z,8.47
2017-09-15T02:37:35.897Z,5.63
2017-09-15T02:40:10.757Z,8.90
2017-09-15T02:42:45.784Z,5.83
2017-09-15T02:45:20.522Z,12.83
2017-09-15T02:47:55.187Z,8.97
2017-09-15T02:50:29.970Z,14.83
2017-09-15T02:53:04.760Z,6.97
2017-09-15T02:55:39.637Z,8.60
2017-09-15T02:58:14.310Z,6.97
2017-09-15T03:00:49.422Z,13.30
2017-09-15T03:03:24.330Z,13.23
2017-09-15T03:05:59.150Z,5.67
2017-09-15T03:08:33.949Z,12.30
2017-09-15T03:11:08.642Z,11.00
2017-09-15T03:13:43.655Z,11.43
2017-09-15T03:16:18.217Z,10.53
2017-09-15T03:18:52.918Z,8.20
2017-09-15T03:21:27.450Z,12.10
2017-09-15T03:24:02.204Z,16.50
2017-09-15T03:26:36.881Z,12.87
2017-09-15T03:29:11.711Z,13.93
2017-09-15T03:31:46.572Z,11.03
2017-09-15T03:34:20.976Z,10.33
2017-09-15T03:36:56.031Z,13.20
2017-09-15T03:39:30.943Z,15.30
2017-09-15T03:42:05.870Z,12.13
2017-09-15T03:44:41.567Z,11.20
2017-09-15T03:47:16.752Z,17.80
2017-09-15T03:49:51.680Z,16.93
2017-09-15T03:52:26.719Z,15.00
2017-09-15T03:55:01.598Z,24.40
2017-09-15T03:57:36.567Z,24.40
2017-09-15T04:00:11.372Z,25.97
2017-09-15T04:02:46.288Z,37.03
2017-09-15T04:05:21.135Z,36.33
2017-09-15T04:07:55.789Z,34.50
2017-09-15T04:10:30.854Z,28.30
2017-09-15T04:13:05.564Z,28.73
2017-09-15T04:15:40.386Z,19.57
2017-09-15T04:18:15.235Z,19.03
2017-09-15T04:20:50.152Z,15.60
2017-09-15T04:23:24.888Z,18.60
2017-09-15T04:25:59.607Z,18.00
2017-09-15T04:28:34.198Z,17.40
2017-09-15T04:31:09.213Z,13.23
2017-09-15T04:33:43.983Z,21.07
2017-09-15T04:36:18.928Z,19.50
2017-09-15T04:38:53.552Z,23.90
2017-09-15T04:41:28.280Z,21.80
2017-09-15T04:44:03.314Z,15.23
2017-09-15T04:46:38.070Z,16.73
2017-09-15T04:49:13.182Z,19.13
2017-09-15T04:51:47.949Z,19.87
2017-09-15T04:54:22.883Z,26.20
2017-09-15T04:56:58.006Z,19.80
2017-09-15T04:59:32.943Z,14.97
2017-09-15T05:02:07.903Z,25.60
2017-09-15T05:04:42.724Z,24.83
2017-09-15T05:07:17.450Z,28.93
2017-09-15T05:09:52.427Z,37.87
2017-09-15T05:12:26.773Z,26.63
2017-09-15T05:15:01.843Z,28.87
2017-09-15T05:17:36.668Z,33.27
2017-09-15T05:20:11.519Z,28.40
2017-09-15T05:22:46.367Z,31.83
2017-09-15T05:25:20.717Z,23.10
2017-09-15T05:27:55.785Z,24.47
2017-09-15T05:30:30.471Z,35.93
2017-09-15T05:33:05.210Z,31.03
2017-09-15T05:35:40.068Z,29.47
2017-09-15T05:38:14.792Z,40.03
2017-09-15T05:40:49.072Z,38.90
2017-09-15T05:43:24.055Z,33.20
2017-09-15T05:45:58.790Z,34.33
2017-09-15T05:48:33.701Z,28.07
2017-09-15T05:51:08.388Z,27.70
2017-09-15T05:53:43.091Z,21.53
2017-09-15T05:56:18.027Z,19.87
2017-09-15T05:58:52.890Z,18.70
2017-09-15T06:01:27.786Z,19.97
2017-09-15T06:04:02.704Z,17.80
2017-09-15T06:06:37.635Z,25.93
2017-09-15T06:09:12.238Z,23.47
2017-09-15T06:11:47.139Z,24.70
2017-09-15T06:14:22.168Z,24.60
2017-09-15T06:16:57.079Z,28.03
2017-09-15T06:19:31.701Z,34.60
2017-09-15T06:22:06.519Z,24.93
2017-09-15T06:24:41.343Z,24.43
2017-09-15T06:27:16.204Z,27.70
2017-09-15T06:29:51.257Z,29.43
2017-09-15T06:32:25.955Z,27.40
2017-09-15T06:35:00.772Z,26.67
2017-09-15T06:37:35.500Z,22.60
2017-09-15T06:40:10.062Z,30.13
2017-09-15T06:42:44.832Z,22.50
2017-09-15T06:45:19.557Z,30.27
2017-09-15T06:47:54.288Z,28.00
2017-09-15T06:50:29.215Z,30.63
2017-09-15T06:53:03.940Z,18.77
2017-09-15T06:55:38.752Z,20.40
2017-09-15T06:58:13.695Z,19.50
2017-09-15T07:00:48.455Z,19.97
2017-09-15T07:03:23.165Z,27.37
2017-09-15T07:05:57.768Z,20.73
2017-09-15T07:08:32.802Z,16.20
2017-09-15T07:11:07.690Z,15.70
2017-09-15T07:13:42.299Z,18.00
2017-09-15T07:16:17.180Z,19.77
2017-09-15T07:18:52.775Z,23.57
2017-09-15T07:21:27.555Z,18.40
2017-09-15T07:24:02.279Z,19.87
2017-09-15T07:26:37.201Z,24.80
2017-09-15T07:29:12.010Z,20.90
2017-09-15T07:31:46.715Z,25.47
2017-09-15T07:34:21.415Z,20.83
2017-09-15T07:36:56.375Z,17.50
2017-09-15T07:39:32.218Z,23.43
2017-09-15T07:42:06.938Z,23.07
2017-09-15T07:44:41.752Z,35.13
2017-09-15T07:47:16.439Z,19.67
2017-09-15T07:49:51.339Z,21.07
2017-09-15T07:52:26.241Z,18.90
2017-09-15T07:55:01.211Z,16.30
2017-09-15T07:57:36.410Z,16.30
2017-09-15T08:00:11.463Z,17.23
2017-09-15T08:02:46.363Z,18.50
2017-09-15T08:05:21.279Z,16.10
2017-09-15T08:07:55.949Z,11.83
2017-09-15T08:10:30.530Z,14.97
2017-09-15T08:13:05.418Z,16.43
2017-09-15T08:15:39.907Z,18.90
2017-09-15T08:18:15.016Z,13.77
2017-09-15T08:20:49.915Z,16.53
2017-09-15T08:23:25.028Z,17.70
2017-09-15T08:25:59.966Z,15.43
2017-09-15T08:28:34.951Z,16.20
2017-09-15T08:31:09.840Z,15.60
2017-09-15T08:33:44.718Z,16.77
2017-09-15T08:36:19.539Z,17.20
2017-09-15T08:38:54.329Z,16.70
2017-09-15T08:41:29.299Z,23.40
2017-09-15T08:44:04.168Z,20.10
2017-09-15T08:46:38.833Z,19.87
2017-09-15T08:49:13.667Z,14.60
2017-09-15T08:51:48.650Z,20.90
2017-09-15T08:54:23.459Z,20.27
2017-09-15T08:56:58.495Z,19.50
2017-09-15T08:59:33.433Z,22.13
2017-09-15T09:02:08.257Z,20.57
2017-09-15T09:04:42.878Z,23.47
2017-09-15T09:07:17.983Z,19.90
2017-09-15T09:09:52.913Z,21.00
2017-09-15T09:12:27.635Z,27.03
2017-09-15T09:15:02.607Z,21.13
2017-09-15T09:17:37.451Z,20.80
2017-09-15T09:20:12.139Z,19.30
2017-09-15T09:22:46.861Z,21.87
2017-09-15T09:25:21.699Z,21.30
2017-09-15T09:27:56.467Z,20.40
2017-09-15T09:30:31.080Z,22.27
2017-09-15T09:33:05.788Z,20.93
2017-09-15T09:35:40.602Z,24.13
2017-09-15T09:38:15.226Z,20.17
2017-09-15T09:40:49.947Z,18.03
2017-09-15T09:43:24.888Z,17.07
2017-09-15T09:45:59.671Z,19.87
2017-09-15T09:48:34.383Z,16.47
2017-09-15T09:51:09.581Z,20.50
2017-09-15T09:53:44.183Z,17.87
2017-09-15T09:56:19.371Z,21.10
2017-09-15T09:58:53.804Z,20.20
2017-09-15T10:01:28.723Z,22.87
2017-09-15T10:04:03.652Z,18.70
2017-09-15T10:06:38.283Z,22.63
2017-09-15T10:09:12.967Z,22.97
2017-09-15T10:11:47.987Z,23.80
2017-09-15T10:14:22.713Z,21.53
2017-09-15T10:16:57.519Z,21.80
2017-09-15T10:19:32.833Z,22.27
2017-09-15T10:22:07.976Z,22.20
2017-09-15T10:24:43.112Z,23.13
2017-09-15T10:27:18.028Z,21.50
2017-09-15T10:29:53.063Z,16.87
2017-09-15T10:32:27.764Z,18.20
2017-09-15T10:35:02.565Z,19.47
2017-09-15T10:37:37.387Z,16.73
2017-09-15T10:40:12.176Z,17.30
2017-09-15T10:42:46.677Z,19.80
2017-09-15T10:45:21.711Z,16.10
2017-09-15T10:47:56.621Z,14.93
2017-09-15T10:50:31.519Z,19.60
2017-09-15T10:53:06.422Z,15.73
2017-09-15T10:55:41.411Z,13.20
2017-09-15T10:58:21.807Z,8.40
2017-09-15T11:00:57.161Z,9.90
2017-09-15T11:03:31.931Z,11.27
2017-09-15T11:06:06.595Z,12.90
2017-09-15T11:08:41.535Z,11.40
2017-09-15T11:11:16.433Z,11.33
2017-09-15T11:13:51.961Z,11.50
2017-09-15T11:16:27.107Z,13.10
2017-09-15T11:19:02.192Z,11.93
2017-09-15T11:21:36.920Z,12.23
2017-09-15T11:24:12.087Z,11.97
2017-09-15T11:26:46.794Z,15.73
2017-09-15T11:29:21.926Z,15.77
2017-09-15T11:31:56.841Z,11.90
2017-09-15T11:34:31.570Z,12.50
2017-09-15T11:37:06.303Z,11.97
2017-09-15T11:39:41.094Z,14.07
2017-09-15T11:42:16.050Z,13.03
2017-09-15T11:44:51.111Z,12.80
2017-09-15T11:47:26.013Z,12.57
2017-09-15T11:50:00.911Z,13.80
2017-09-15T11:52:35.823Z,12.90
2017-09-15T11:55:11.003Z,11.90
2017-09-15T11:57:46.211Z,12.93
2017-09-15T12:00:21.232Z,13.03
2017-09-15T12:02:55.738Z,13.37
2017-09-15T12:05:30.888Z,15.83
2017-09-15T12:08:05.341Z,13.57
2017-09-15T12:10:40.267Z,14.50
2017-09-15T12:13:15.099Z,10.07
2017-09-15T12:15:49.961Z,14.20
2017-09-15T12:18:24.776Z,11.63
2017-09-15T12:20:59.675Z,15.73
2017-09-15T12:23:34.271Z,12.83
2017-09-15T12:26:09.403Z,13.20
2017-09-15T12:28:44.199Z,13.00
2017-09-15T12:31:19.337Z,13.60
2017-09-15T12:33:54.449Z,15.10
2017-09-15T12:36:29.284Z,8.93
2017-09-15T12:39:03.758Z,7.93
2017-09-15T12:41:38.616Z,8.10
2017-09-15T12:44:13.217Z,7.17
2017-09-15T12:46:47.858Z,9.07
2017-09-15T12:49:22.479Z,8.30
2017-09-15T12:51:57.697Z,9.83
2017-09-15T12:54:32.699Z,9.40
2017-09-15T12:57:07.718Z,9.10
2017-09-15T12:59:42.813Z,9.37
2017-09-15T13:02:17.574Z,8.47
2017-09-15T13:04:52.215Z,8.70
2017-09-15T13:07:26.922Z,9.30
2017-09-15T13:10:01.675Z,8.27
2017-09-15T13:12:36.879Z,8.90
2017-09-15T13:15:11.406Z,9.33
2017-09-15T13:17:46.104Z,9.40
2017-09-15T13:20:20.724Z,7.50
2017-09-15T13:22:55.533Z,6.90
2017-09-15T13:25:30.551Z,6.57
2017-09-15T13:28:05.551Z,6.40
2017-09-15T13:30:39.662Z,6.63
2017-09-15T13:33:14.800Z,6.93
2017-09-15T13:35:49.668Z,6.03
2017-09-15T13:38:24.607Z,5.97
2017-09-15T13:40:59.360Z,6.70
2017-09-15T13:43:34.235Z,4.70
2017-09-15T13:46:08.612Z,7.23
2017-09-15T13:48:43.314Z,6.60
2017-09-15T13:51:18.035Z,6.77
2017-09-15T13:53:52.880Z,8.20
2017-09-15T13:56:27.600Z,9.87
2017-09-15T13:59:02.432Z,9.40
2017-09-15T14:01:38.056Z,9.67
2017-09-15T14:04:12.863Z,10.80
2017-09-15T14:06:47.461Z,8.43
2017-09-15T14:09:22.180Z,5.70
2017-09-15T14:11:57.069Z,6.37
2017-09-15T14:14:31.795Z,6.83
2017-09-15T14:17:06.332Z,5.93
2017-09-15T14:19:40.935Z,7.43
2017-09-15T14:22:15.736Z,8.60
2017-09-15T14:24:50.639Z,9.30
2017-09-15T14:27:25.515Z,8.37
2017-09-15T14:30:09.162Z,8.23
2017-09-15T14:32:43.875Z,9.00
2017-09-15T14:35:19.430Z,9.50
2017-09-15T14:37:53.970Z,22.20
2017-09-15T14:40:28.637Z,10.40
2017-09-15T14:43:03.449Z,10.17
2017-09-15T14:45:38.045Z,11.10
2017-09-15T14:48:12.663Z,10.20
2017-09-15T14:50:47.141Z,9.77
2017-09-15T14:53:21.995Z,9.60
2017-09-15T14:55:56.819Z,11.80
2017-09-15T14:58:31.639Z,11.70
2017-09-15T15:01:06.462Z,10.53
2017-09-15T15:03:41.194Z,16.90
2017-09-15T15:06:16.989Z,15.20
2017-09-15T15:08:52.110Z,9.93
2017-09-15T15:11:27.079Z,10.03
2017-09-15T15:14:02.294Z,10.77
2017-09-15T15:16:37.500Z,9.67
2017-09-15T15:19:12.261Z,9.43
2017-09-15T15:21:47.026Z,9.37
2017-09-15T15:24:21.824Z,9.80
2017-09-15T15:26:56.523Z,8.27
2017-09-15T15:29:31.137Z,10.20
2017-09-15T15:32:05.783Z,9.07
2017-09-15T15:34:41.256Z,9.53
2017-09-15T15:37:16.070Z,12.83
2017-09-15T15:39:51.082Z,12.60
2017-09-15T15:42:25.902Z,8.80
2017-09-15T15:45:00.754Z,9.40
2017-09-15T15:47:35.617Z,10.47
2017-09-15T15:50:10.131Z,8.83
2017-09-15T15:52:44.862Z,7.87
2017-09-15T15:55:19.957Z,9.83
2017-09-15T15:57:54.700Z,6.83
2017-09-15T16:00:30.581Z,6.83
2017-09-15T16:03:05.287Z,8.23
2017-09-15T16:05:40.192Z,8.30
2017-09-15T16:08:14.639Z,8.10
2017-09-15T16:10:49.396Z,8.50
2017-09-15T16:13:24.091Z,11.10
2017-09-15T16:15:58.721Z,5.70
2017-09-15T16:18:33.339Z,5.47
2017-09-15T16:21:08.068Z,5.27
2017-09-15T16:23:43.647Z,5.47
2017-09-15T16:26:18.155Z,5.87
2017-09-15T16:28:52.817Z,6.73
2017-09-15T16:31:27.251Z,4.70
2017-09-15T16:34:01.763Z,5.83
2017-09-15T16:36:37.530Z,5.00
2017-09-15T16:39:17.625Z,3.97
2017-09-15T16:41:58.277Z,3.87
2017-09-15T16:44:38.889Z,4.50
2017-09-15T16:47:19.215Z,4.33
2017-09-15T16:49:52.847Z,4.93
2017-09-15T16:52:28.057Z,5.90
2017-09-15T16:55:02.859Z,6.40
2017-09-15T16:57:37.564Z,5.67
2017-09-15T17:00:12.268Z,5.20
2017-09-15T17:02:46.927Z,4.70
2017-09-15T17:05:21.464Z,4.63
2017-09-15T17:07:56.468Z,4.50
2017-09-15T17:10:31.168Z,7.20
2017-09-15T17:13:06.175Z,6.07
2017-09-15T17:15:40.983Z,6.33
2017-09-15T17:18:15.906Z,6.37
2017-09-15T17:20:50.709Z,7.07
2017-09-15T17:23:25.513Z,7.17
2017-09-15T17:26:00.190Z,9.40
2017-09-15T17:28:35.042Z,8.93
2017-09-15T17:31:10.732Z,9.00
2017-09-15T17:33:45.536Z,9.37
2017-09-15T17:36:20.153Z,9.90
2017-09-15T17:38:55.037Z,7.60
2017-09-15T17:41:29.551Z,8.03
2017-09-15T17:44:04.375Z,8.00
2017-09-15T17:46:38.793Z,8.37
2017-09-15T17:49:13.703Z,9.17
2017-09-15T17:51:49.129Z,9.90
2017-09-15T17:54:23.759Z,8.47
2017-09-15T17:56:59.341Z,8.27
2017-09-15T17:59:34.165Z,9.20
2017-09-15T18:02:08.707Z,9.67
2017-09-15T18:04:43.416Z,10.57
2017-09-15T18:07:18.315Z,10.57
2017-09-15T18:09:53.422Z,8.40
2017-09-15T18:12:28.395Z,12.63
2017-09-15T18:15:03.866Z,8.80
2017-09-15T18:17:38.806Z,8.20
2017-09-15T18:20:13.576Z,11.97
2017-09-15T18:22:48.677Z,8.90
2017-09-15T18:25:23.566Z,10.40
2017-09-15T18:27:58.389Z,8.80
2017-09-15T18:30:33.025Z,8.87
2017-09-15T18:33:07.907Z,8.40
2017-09-15T18:35:42.844Z,7.80
2017-09-15T18:38:17.651Z,8.70
2017-09-15T18:40:52.200Z,8.20
2017-09-15T18:43:26.946Z,6.90
2017-09-15T18:46:01.570Z,7.53
2017-09-15T18:48:37.250Z,8.33
2017-09-15T18:51:11.659Z,7.73
2017-09-15T18:53:46.486Z,7.70
2017-09-15T18:56:21.175Z,8.43
2017-09-15T18:58:55.845Z,9.67
2017-09-15T19:01:30.402Z,7.93
2017-09-15T19:04:05.139Z,8.60
2017-09-15T19:06:39.799Z,8.93
2017-09-15T19:09:14.315Z,14.90
2017-09-15T19:11:49.098Z,11.03
2017-09-15T19:14:24.451Z,10.53
2017-09-15T19:16:59.442Z,11.63
2017-09-15T19:19:34.331Z,12.20
2017-09-15T19:22:09.530Z,12.27
2017-09-15T19:24:44.539Z,14.17
2017-09-15T19:27:19.463Z,15.23
2017-09-15T19:29:54.320Z,10.77
2017-09-15T19:32:29.239Z,10.20
2017-09-15T19:35:03.958Z,10.23
2017-09-15T19:37:38.791Z,11.20
2017-09-15T19:40:13.351Z,12.00
2017-09-15T19:42:48.236Z,11.10
2017-09-15T19:45:22.973Z,8.43
2017-09-15T19:47:57.684Z,9.37
2017-09-15T19:50:32.317Z,9.73
2017-09-15T19:53:07.163Z,9.17
2017-09-15T19:55:41.775Z,8.60
2017-09-15T19:58:16.633Z,7.70
2017-09-15T20:00:51.231Z,8.20
2017-09-15T20:03:25.956Z,7.97
2017-09-15T20:06:00.798Z,8.47
2017-09-15T20:08:35.583Z,8.30
2017-09-15T20:11:10.372Z,8.33
2017-09-15T20:13:45.055Z,8.07
2017-09-15T20:16:19.863Z,6.40
2017-09-15T20:18:54.775Z,7.17
2017-09-15T20:21:29.470Z,7.07
2017-09-15T20:24:04.184Z,6.70
2017-09-15T20:26:38.743Z,8.50
2017-09-15T20:29:13.438Z,7.03
2017-09-15T20:31:48.361Z,7.80
2017-09-15T20:34:23.299Z,7.67
2017-09-15T20:36:57.923Z,8.93
2017-09-15T20:39:32.797Z,7.30
2017-09-15T20:42:07.768Z,8.33
2017-09-15T20:44:42.533Z,9.43
2017-09-15T20:47:17.518Z,8.50
2017-09-15T20:49:52.131Z,8.57
2017-09-15T20:52:27.063Z,7.47
2017-09-15T20:55:01.912Z,8.73
2017-09-15T20:57:36.600Z,7.50
2017-09-15T21:00:11.123Z,6.07
2017-09-15T21:02:46.050Z,7.57
2017-09-15T21:05:20.815Z,7.40
2017-09-15T21:07:55.444Z,6.10
2017-09-15T21:10:29.967Z,8.10
2017-09-15T21:13:04.542Z,6.83
2017-09-15T21:15:39.216Z,6.57
2017-09-15T21:18:13.928Z,7.53
2017-09-15T21:20:48.655Z,9.47
2017-09-15T21:23:23.395Z,6.57
2017-09-15T21:25:58.100Z,6.80
2017-09-15T21:28:32.923Z,6.40
2017-09-15T21:31:07.981Z,8.40
2017-09-15T21:33:42.540Z,7.77
2017-09-15T21:36:17.452Z,8.07
2017-09-15T21:38:52.115Z,7.07
2017-09-15T21:41:27.199Z,7.80
2017-09-15T21:44:02.819Z,7.50
2017-09-15T21:46:38.654Z,8.27
2017-09-15T21:49:13.238Z,8.33
2017-09-15T21:51:47.991Z,8.10
2017-09-15T21:54:22.675Z,10.07
2017-09-15T21:56:57.755Z,8.80
2017-09-15T21:59:32.459Z,10.10
2017-09-15T22:02:07.283Z,10.03
2017-09-15T22:04:42.377Z,9.93
2017-09-15T22:07:17.258Z,11.80
2017-09-15T22:09:52.099Z,9.67
2017-09-15T22:12:26.972Z,9.80
2017-09-15T22:15:01.760Z,10.20
2017-09-15T22:17:36.269Z,10.73
2017-09-15T22:20:10.988Z,13.53
2017-09-15T22:22:45.994Z,11.93
2017-09-15T22:25:20.653Z,15.00
2017-09-15T22:27:55.202Z,13.33
2017-09-15T22:30:30.219Z,12.70
2017-09-15T22:33:04.724Z,12.77
2017-09-15T22:35:39.680Z,12.70
2017-09-15T22:38:14.666Z,14.83
2017-09-15T22:40:49.525Z,16.10
2017-09-15T22:43:24.374Z,14.77
2017-09-15T22:46:01.721Z,12.73
2017-09-15T22:48:36.119Z,14.17
2017-09-15T22:51:10.788Z,16.53
2017-09-15T22:53:45.660Z,16.57
2017-09-15T22:56:20.523Z,16.30
2017-09-15T22:58:55.446Z,16.10
2017-09-15T23:01:30.289Z,16.07
2017-09-15T23:04:05.233Z,15.90
2017-09-15T23:06:40.043Z,17.80
2017-09-15T23:09:14.786Z,19.97
2017-09-15T23:11:49.718Z,17.57
2017-09-15T23:14:24.722Z,19.13
2017-09-15T23:16:59.671Z,19.77
2017-09-15T23:19:34.531Z,17.80
2017-09-15T23:22:09.360Z,20.17
2017-09-15T23:24:44.362Z,19.90
2017-09-15T23:27:19.158Z,19.97
2017-09-15T23:29:54.196Z,22.50
2017-09-15T23:32:29.097Z,19.67
2017-09-15T23:35:03.847Z,21.93
2017-09-15T23:37:38.526Z,21.80
2017-09-15T23:40:13.184Z,18.53
2017-09-15T23:42:48.179Z,18.83
2017-09-15T23:45:23.000Z,21.63
2017-09-15T23:47:57.864Z,20.57
2017-09-15T23:50:32.709Z,20.10
2017-09-15T23:53:07.719Z,19.53
2017-09-15T23:55:42.630Z,21.70
2017-09-15T23:58:17.459Z,22.63
